Time;durP1;ratioP1;P1;durP2;ratioP2;P2;SDS_P1;SDS_P2;PMS_P1;PMS_P2;Temp;Humidity;BMP_temperature;BMP_pressure;BME280_temperature;BME280_humidity;BME280_pressure;Samples;Min_cycle;Max_cycle;Signal;HPM_P1;HPM_P2
2023/12/24 00:01:18;;;;;;;0.40;0.40;;;;;;;;;;4999411;28;20097;-81
2023/12/24 00:03:43;;;;;;;0.30;0.30;;;;;;;;;;4998128;28;20034;-82
2023/12/24 00:06:09;;;;;;;0.30;0.30;;;;;;;;;;4998566;28;20479;-79
2023/12/24 00:08:35;;;;;;;0.40;0.40;;;;;;;;;;4999950;28;20050;-80
2023/12/24 00:11:01;;;;;;;0.30;0.30;;;;;;;;;;4999360;28;20060;-80
2023/12/24 00:13:27;;;;;;;0.50;0.50;;;;;;;;;;4998309;28;20084;-81
2023/12/24 00:15:52;;;;;;;0.45;0.45;;;;;;;;;;4998771;28;20049;-80
2023/12/24 00:18:18;;;;;;;0.40;0.40;;;;;;;;;;4999493;28;20570;-80
2023/12/24 00:20:43;;;;;;;0.55;0.55;;;;;;;;;;5000303;28;20073;-80
2023/12/24 00:23:10;;;;;;;2.53;0.57;;;;;;;;;;5000057;28;20031;-80
2023/12/24 00:25:36;;;;;;;0.28;0.28;;;;;;;;;;4998728;28;20031;-80
2023/12/24 00:28:03;;;;;;;0.50;0.47;;;;;;;;;;5000068;28;20034;-80
2023/12/24 00:30:28;;;;;;;0.40;0.40;;;;;;;;;;4999855;28;20097;-82
2023/12/24 00:32:54;;;;;;;0.30;0.30;;;;;;;;;;4998487;28;20124;-80
2023/12/24 00:35:20;;;;;;;0.30;0.30;;;;;;;;;;4997068;28;20085;-80
2023/12/24 00:37:45;;;;;;;0.40;0.40;;;;;;;;;;4997298;28;20499;-80
2023/12/24 00:40:11;;;;;;;0.40;0.40;;;;;;;;;;4998611;28;20061;-81
2023/12/24 00:42:36;;;;;;;0.38;0.38;;;;;;;;;;4997338;28;20046;-80
2023/12/24 00:45:02;;;;;;;0.30;0.30;;;;;;;;;;4999340;28;20034;-80
2023/12/24 00:47:27;;;;;;;0.30;0.30;;;;;;;;;;4977139;28;20039;-80
2023/12/24 00:49:52;;;;;;;0.30;0.30;;;;;;;;;;4977386;28;20039;-80
2023/12/24 00:52:17;;;;;;;0.40;0.40;;;;;;;;;;5006956;28;20492;-80
2023/12/24 00:54:43;;;;;;;0.25;0.25;;;;;;;;;;4999257;28;20056;-80
2023/12/24 00:57:08;;;;;;;0.30;0.30;;;;;;;;;;4997274;28;20036;-82
2023/12/24 00:59:33;;;;;;;0.25;0.25;;;;;;;;;;4977749;28;20050;-81
2023/12/24 01:01:59;;;;;;;0.40;0.40;;;;;;;;;;4996068;28;20035;-81
2023/12/24 01:04:24;;;;;;;0.32;0.32;;;;;;;;;;4982898;28;20141;-80
2023/12/24 01:06:49;;;;;;;0.50;0.50;;;;;;;;;;4998105;28;20114;-80
2023/12/24 01:09:14;;;;;;;0.30;0.30;;;;;;;;;;4995887;28;20548;-80
2023/12/24 01:11:40;;;;;;;1.38;0.40;;;;;;;;;;4977462;28;20055;-80
2023/12/24 01:14:06;;;;;;;0.40;0.40;;;;;;;;;;4989704;28;20081;-80
2023/12/24 01:16:31;;;;;;;0.43;0.43;;;;;;;;;;4977484;28;20034;-80
2023/12/24 01:18:56;;;;;;;0.40;0.40;;;;;;;;;;4982619;28;20068;-81
2023/12/24 01:21:22;;;;;;;0.30;0.30;;;;;;;;;;4993402;28;20034;-79
2023/12/24 01:23:47;;;;;;;0.45;0.43;;;;;;;;;;4978742;28;20023;-80
2023/12/24 01:26:12;;;;;;;0.30;0.30;;;;;;;;;;4978668;28;20381;-81
2023/12/24 01:28:38;;;;;;;0.40;0.40;;;;;;;;;;4993972;28;20039;-81
2023/12/24 01:31:03;;;;;;;0.52;0.52;;;;;;;;;;4997051;28;20523;-79
2023/12/24 01:33:28;;;;;;;0.40;0.40;;;;;;;;;;4994335;28;20042;-81
2023/12/24 01:35:54;;;;;;;0.40;0.40;;;;;;;;;;4978414;28;20041;-79
2023/12/24 01:38:19;;;;;;;0.40;0.40;;;;;;;;;;4978288;28;20047;-80
2023/12/24 01:40:47;;;;;;;0.30;0.30;;;;;;;;;;4978260;28;20046;-79
2023/12/24 01:43:12;;;;;;;0.30;0.30;;;;;;;;;;4987518;28;20498;-80
2023/12/24 01:45:37;;;;;;;0.40;0.40;;;;;;;;;;4997259;28;20057;-80
2023/12/24 01:48:03;;;;;;;0.30;0.30;;;;;;;;;;4997879;28;20029;-80
2023/12/24 01:50:29;;;;;;;0.30;0.30;;;;;;;;;;4996127;28;20061;-82
2023/12/24 01:52:54;;;;;;;0.30;0.30;;;;;;;;;;4980278;28;20046;-81
2023/12/24 01:55:20;;;;;;;2.35;0.30;;;;;;;;;;4976111;28;20039;-79
2023/12/24 01:57:45;;;;;;;0.32;0.32;;;;;;;;;;4981924;28;20061;-81
2023/12/24 02:00:11;;;;;;;0.40;0.40;;;;;;;;;;4993924;28;20060;-81
2023/12/24 02:02:38;;;;;;;0.40;0.40;;;;;;;;;;4977654;28;20030;-81
2023/12/24 02:05:03;;;;;;;0.30;0.30;;;;;;;;;;4993639;28;20498;-81
2023/12/24 02:07:31;;;;;;;0.30;0.30;;;;;;;;;;4984327;28;20045;-80
2023/12/24 02:09:58;;;;;;;0.30;0.30;;;;;;;;;;4973324;28;20035;-80
2023/12/24 02:12:23;;;;;;;0.32;0.32;;;;;;;;;;4976881;28;20053;-80
2023/12/24 02:14:48;;;;;;;0.40;0.40;;;;;;;;;;4978667;28;20086;-80
2023/12/24 02:17:15;;;;;;;0.28;0.28;;;;;;;;;;4994573;28;20474;-81
2023/12/24 02:19:40;;;;;;;0.25;0.25;;;;;;;;;;4972731;28;20094;-80
2023/12/24 02:22:05;;;;;;;0.30;0.30;;;;;;;;;;4989385;28;20031;-81
2023/12/24 02:24:31;;;;;;;0.30;0.30;;;;;;;;;;4978502;28;20043;-79
2023/12/24 02:26:59;;;;;;;0.30;0.30;;;;;;;;;;4977738;28;20069;-81
2023/12/24 02:29:34;;;;;;;0.30;0.30;;;;;;;;;;4972035;28;20030;-82
2023/12/24 02:32:04;;;;;;;;;;;;;;;;;;4991819;28;20043;-79
2023/12/24 02:34:31;;;;;;;0.40;0.40;;;;;;;;;;4996166;28;19921;-81
2023/12/24 02:36:57;;;;;;;0.40;0.40;;;;;;;;;;4995357;28;20681;-80
2023/12/24 02:39:22;;;;;;;0.40;0.40;;;;;;;;;;4995019;28;20037;-80
2023/12/24 02:41:48;;;;;;;0.57;0.57;;;;;;;;;;4997064;28;20554;-82
2023/12/24 02:44:13;;;;;;;0.32;0.32;;;;;;;;;;4997171;28;20042;-80
2023/12/24 02:46:38;;;;;;;4.63;0.57;;;;;;;;;;4995003;28;20337;-81
2023/12/24 02:49:03;;;;;;;0.40;0.40;;;;;;;;;;4990282;28;20034;-81
2023/12/24 02:51:29;;;;;;;0.50;0.50;;;;;;;;;;4981946;28;20037;-80
2023/12/24 02:53:54;;;;;;;0.43;0.43;;;;;;;;;;4998765;28;20049;-80
2023/12/24 02:56:19;;;;;;;0.32;0.32;;;;;;;;;;4996040;28;20042;-80
2023/12/24 02:58:44;;;;;;;0.60;0.60;;;;;;;;;;4991514;28;20038;-78
2023/12/24 03:01:10;;;;;;;0.30;0.30;;;;;;;;;;4978197;28;20061;-81
2023/12/24 03:03:35;;;;;;;0.35;0.35;;;;;;;;;;4979627;28;20099;-80
2023/12/24 03:06:00;;;;;;;0.32;0.32;;;;;;;;;;5000123;28;20037;-80
2023/12/24 03:08:26;;;;;;;0.35;0.35;;;;;;;;;;4982883;28;20091;-80
2023/12/24 03:10:51;;;;;;;0.90;0.52;;;;;;;;;;4980732;28;20038;-80
2023/12/24 03:13:16;;;;;;;0.30;0.30;;;;;;;;;;4978035;28;20069;-80
2023/12/24 03:15:43;;;;;;;0.35;0.35;;;;;;;;;;4976552;28;20415;-81
2023/12/24 03:18:08;;;;;;;0.40;0.40;;;;;;;;;;4970571;28;20072;-81
2023/12/24 03:20:34;;;;;;;0.40;0.40;;;;;;;;;;4996201;28;20041;-81
2023/12/24 03:22:59;;;;;;;1.20;0.32;;;;;;;;;;4998675;28;20499;-80
2023/12/24 03:25:24;;;;;;;0.30;0.30;;;;;;;;;;4999088;28;20038;-80
2023/12/24 03:27:50;;;;;;;0.35;0.35;;;;;;;;;;5011071;28;20042;-81
2023/12/24 03:30:15;;;;;;;0.50;0.50;;;;;;;;;;4981195;28;20407;-80
2023/12/24 03:32:40;;;;;;;2.42;0.50;;;;;;;;;;5000214;28;20061;-80
2023/12/24 03:35:06;;;;;;;0.40;0.40;;;;;;;;;;4999387;28;20030;-80
2023/12/24 03:37:31;;;;;;;0.20;0.20;;;;;;;;;;4985895;28;20043;-80
2023/12/24 03:39:56;;;;;;;0.30;0.30;;;;;;;;;;4987380;28;20065;-80
2023/12/24 03:42:22;;;;;;;0.30;0.30;;;;;;;;;;4998667;28;20423;-82
2023/12/24 03:44:47;;;;;;;0.30;0.30;;;;;;;;;;4997134;28;20030;-79
2023/12/24 03:47:12;;;;;;;0.40;0.40;;;;;;;;;;4982397;28;20047;-79
2023/12/24 03:49:37;;;;;;;0.40;0.40;;;;;;;;;;4993763;28;20038;-81
2023/12/24 03:52:03;;;;;;;0.32;0.32;;;;;;;;;;4997336;28;20046;-81
2023/12/24 03:54:28;;;;;;;0.50;0.50;;;;;;;;;;4998490;28;20101;-80
2023/12/24 03:56:53;;;;;;;0.30;0.30;;;;;;;;;;5000165;28;20036;-80
2023/12/24 03:59:19;;;;;;;0.30;0.30;;;;;;;;;;4977590;28;20050;-82
2023/12/24 04:01:44;;;;;;;0.35;0.35;;;;;;;;;;4977964;28;20034;-81
2023/12/24 04:04:09;;;;;;;0.30;0.30;;;;;;;;;;4985330;28;20054;-81
2023/12/24 04:06:35;;;;;;;0.63;0.50;;;;;;;;;;5012504;22;20054;-82
2023/12/24 04:09:00;;;;;;;0.20;0.20;;;;;;;;;;5012984;28;20049;-82
2023/12/24 04:11:27;;;;;;;0.45;0.38;;;;;;;;;;4996455;28;20050;-80
2023/12/24 04:13:52;;;;;;;0.45;0.40;;;;;;;;;;5003946;28;20065;-79
2023/12/24 04:16:17;;;;;;;0.50;0.50;;;;;;;;;;5002467;28;20050;-79
2023/12/24 04:18:43;;;;;;;0.30;0.30;;;;;;;;;;5011152;28;20038;-80
2023/12/24 04:21:08;;;;;;;0.30;0.30;;;;;;;;;;4983139;28;20061;-79
2023/12/24 04:23:34;;;;;;;0.40;0.40;;;;;;;;;;4980077;28;20026;-79
2023/12/24 04:25:59;;;;;;;0.40;0.40;;;;;;;;;;4988210;28;20050;-79
2023/12/24 04:28:24;;;;;;;0.32;0.32;;;;;;;;;;5001053;28;20061;-80
2023/12/24 04:30:49;;;;;;;0.40;0.40;;;;;;;;;;4996844;28;20098;-80
2023/12/24 04:33:15;;;;;;;0.40;0.40;;;;;;;;;;5021397;28;20044;-80
2023/12/24 04:35:40;;;;;;;0.40;0.40;;;;;;;;;;4986487;28;20449;-80
2023/12/24 04:38:05;;;;;;;0.30;0.30;;;;;;;;;;4973958;28;20026;-80
2023/12/24 04:40:31;;;;;;;0.30;0.30;;;;;;;;;;4985707;28;20514;-80
2023/12/24 04:42:56;;;;;;;0.35;0.30;;;;;;;;;;4990263;28;20054;-80
2023/12/24 04:45:22;;;;;;;0.30;0.30;;;;;;;;;;4975248;28;20577;-79
2023/12/24 04:47:47;;;;;;;0.30;0.30;;;;;;;;;;5007674;28;20124;-79
2023/12/24 04:50:12;;;;;;;0.40;0.40;;;;;;;;;;5006974;28;20068;-79
2023/12/24 04:52:38;;;;;;;0.30;0.30;;;;;;;;;;5027841;28;20030;-80
2023/12/24 04:55:05;;;;;;;0.63;0.50;;;;;;;;;;5001815;28;20042;-79
2023/12/24 04:57:31;;;;;;;0.30;0.30;;;;;;;;;;5003401;28;20054;-79
2023/12/24 04:59:56;;;;;;;1.00;0.40;;;;;;;;;;4994365;28;20124;-79
2023/12/24 05:02:21;;;;;;;0.40;0.40;;;;;;;;;;4986453;28;20113;-79
2023/12/24 05:04:48;;;;;;;0.30;0.30;;;;;;;;;;4980666;28;20074;-79
2023/12/24 05:07:13;;;;;;;0.50;0.50;;;;;;;;;;4997065;28;20057;-80
2023/12/24 05:09:39;;;;;;;0.47;0.47;;;;;;;;;;5000125;28;20050;-79
2023/12/24 05:12:05;;;;;;;2.00;0.50;;;;;;;;;;5000834;28;20022;-79
2023/12/24 05:14:33;;;;;;;1.05;0.40;;;;;;;;;;4994928;28;20112;-80
2023/12/24 05:16:58;;;;;;;0.50;0.50;;;;;;;;;;5005972;28;20034;-80
2023/12/24 05:19:24;;;;;;;0.30;0.30;;;;;;;;;;5017633;28;20038;-80
2023/12/24 05:21:49;;;;;;;0.50;0.47;;;;;;;;;;5008077;28;20030;-80
2023/12/24 05:24:14;;;;;;;1.10;0.50;;;;;;;;;;4992775;28;20038;-79
2023/12/24 05:26:40;;;;;;;0.50;0.50;;;;;;;;;;5041436;28;20034;-80
2023/12/24 05:29:05;;;;;;;3.35;0.50;;;;;;;;;;5022148;28;20037;-80
2023/12/24 05:31:31;;;;;;;0.40;0.40;;;;;;;;;;5055954;28;20119;-79
2023/12/24 05:33:56;;;;;;;0.40;0.40;;;;;;;;;;5018512;28;20060;-80
2023/12/24 05:36:21;;;;;;;0.40;0.40;;;;;;;;;;5011996;28;20053;-80
2023/12/24 05:38:47;;;;;;;0.40;0.40;;;;;;;;;;5024231;28;20079;-79
2023/12/24 05:41:15;;;;;;;0.32;0.32;;;;;;;;;;5022941;28;20113;-80
2023/12/24 05:43:40;;;;;;;0.55;0.55;;;;;;;;;;5014029;28;20052;-79
2023/12/24 05:46:12;;;;;;;0.50;0.50;;;;;;;;;;5008473;28;20132;-79
2023/12/24 05:48:37;;;;;;;0.47;0.47;;;;;;;;;;5039378;28;20124;-79
2023/12/24 05:51:03;;;;;;;0.47;0.47;;;;;;;;;;5024587;28;20057;-79
2023/12/24 05:53:28;;;;;;;0.30;0.30;;;;;;;;;;5004649;28;20053;-80
2023/12/24 05:55:53;;;;;;;0.43;0.43;;;;;;;;;;5026690;28;20101;-79
2023/12/24 05:58:21;;;;;;;0.50;0.50;;;;;;;;;;5023081;28;20048;-79
2023/12/24 06:00:47;;;;;;;0.30;0.30;;;;;;;;;;5020349;28;20093;-79
2023/12/24 06:03:13;;;;;;;0.50;0.50;;;;;;;;;;5017081;28;20061;-79
2023/12/24 06:05:38;;;;;;;0.50;0.50;;;;;;;;;;5017893;28;20057;-79
2023/12/24 06:08:04;;;;;;;0.60;0.60;;;;;;;;;;5016514;28;20052;-78
2023/12/24 06:10:29;;;;;;;0.50;0.50;;;;;;;;;;5017814;28;20060;-78
2023/12/24 06:12:54;;;;;;;0.40;0.40;;;;;;;;;;5016767;28;20029;-80
2023/12/24 06:15:20;;;;;;;0.50;0.50;;;;;;;;;;5034902;28;20437;-79
2023/12/24 06:17:45;;;;;;;1.65;0.70;;;;;;;;;;5018210;28;20031;-79
2023/12/24 06:20:11;;;;;;;0.52;0.52;;;;;;;;;;5035907;28;20045;-80
2023/12/24 06:22:36;;;;;;;0.47;0.47;;;;;;;;;;5033880;28;20046;-80
2023/12/24 06:25:02;;;;;;;0.65;0.65;;;;;;;;;;5034282;28;20025;-80
2023/12/24 06:27:27;;;;;;;0.55;0.43;;;;;;;;;;5034982;28;20029;-80
2023/12/24 06:29:53;;;;;;;0.50;0.50;;;;;;;;;;5018457;28;20043;-79
2023/12/24 06:32:18;;;;;;;0.40;0.40;;;;;;;;;;5018053;28;20043;-82
2023/12/24 06:34:43;;;;;;;0.50;0.50;;;;;;;;;;5003816;28;20052;-83
2023/12/24 06:37:09;;;;;;;1.48;0.55;;;;;;;;;;5022998;28;20040;-82
2023/12/24 06:39:34;;;;;;;0.40;0.40;;;;;;;;;;5024714;28;20029;-82
2023/12/24 06:41:59;;;;;;;0.50;0.50;;;;;;;;;;5043574;28;20419;-84
2023/12/24 06:44:24;;;;;;;0.80;0.77;;;;;;;;;;5043666;28;20116;-83
2023/12/24 06:46:50;;;;;;;0.47;0.47;;;;;;;;;;5026251;28;20482;-83
2023/12/24 06:49:15;;;;;;;0.95;0.65;;;;;;;;;;5060337;28;20148;-83
2023/12/24 06:51:40;;;;;;;0.50;0.50;;;;;;;;;;5034139;28;20561;-83
2023/12/24 06:54:06;;;;;;;0.38;0.38;;;;;;;;;;5022491;28;20033;-83
2023/12/24 07:02:40;;;;;;;0.32;0.32;;;;;;;;;;4983954;28;20062;-83
2023/12/24 07:05:06;;;;;;;0.47;0.47;;;;;;;;;;4966852;28;20039;-83
2023/12/24 07:07:32;;;;;;;0.77;0.50;;;;;;;;;;4940169;29;20503;-83
2023/12/24 07:09:57;;;;;;;0.90;0.40;;;;;;;;;;4931140;29;20023;-82
2023/12/24 07:12:23;;;;;;;0.43;0.43;;;;;;;;;;4962079;28;20526;-82
2023/12/24 07:14:48;;;;;;;0.45;0.43;;;;;;;;;;4977767;28;20097;-82
2023/12/24 07:17:13;;;;;;;0.40;0.40;;;;;;;;;;4980801;28;20049;-81
2023/12/24 07:19:39;;;;;;;0.50;0.50;;;;;;;;;;4967521;28;20046;-82
2023/12/24 07:22:04;;;;;;;0.50;0.50;;;;;;;;;;4983240;28;20043;-81
2023/12/24 07:24:29;;;;;;;0.50;0.50;;;;;;;;;;4967090;28;20098;-81
2023/12/24 07:26:55;;;;;;;0.40;0.40;;;;;;;;;;4957739;28;20031;-82
2023/12/24 07:29:20;;;;;;;0.47;0.47;;;;;;;;;;4970071;28;20059;-81
2023/12/24 07:31:48;;;;;;;0.40;0.40;;;;;;;;;;4964542;28;20038;-80
2023/12/24 07:34:14;;;;;;;0.40;0.40;;;;;;;;;;4982333;28;20125;-80
2023/12/24 07:36:39;;;;;;;0.32;0.32;;;;;;;;;;4972656;28;20046;-79
2023/12/24 07:39:05;;;;;;;0.50;0.50;;;;;;;;;;4966676;28;20023;-79
2023/12/24 07:41:31;;;;;;;0.40;0.40;;;;;;;;;;4984995;28;20078;-84
2023/12/24 07:43:56;;;;;;;0.40;0.40;;;;;;;;;;4989632;28;20035;-81
2023/12/24 07:46:22;;;;;;;0.50;0.50;;;;;;;;;;4994976;28;20085;-82
2023/12/24 07:48:47;;;;;;;0.60;0.60;;;;;;;;;;4986514;28;20123;-83
2023/12/24 07:51:12;;;;;;;0.60;0.60;;;;;;;;;;4982244;28;20023;-83
2023/12/24 07:53:38;;;;;;;0.50;0.50;;;;;;;;;;4972547;28;20023;-83
2023/12/24 07:56:04;;;;;;;0.60;0.60;;;;;;;;;;4967250;28;20043;-83
2023/12/24 07:58:29;;;;;;;0.47;0.47;;;;;;;;;;4984234;28;20402;-82
2023/12/24 08:00:55;;;;;;;0.40;0.40;;;;;;;;;;4998430;28;20035;-83
2023/12/24 08:03:20;;;;;;;0.60;0.60;;;;;;;;;;4984157;28;20046;-82
2023/12/24 08:05:46;;;;;;;0.60;0.60;;;;;;;;;;4984126;28;20465;-82
2023/12/24 08:10:49;;;;;;;0.32;0.32;;;;;;;;;;5138126;23;20038;-82
2023/12/24 08:13:15;;;;;;;0.57;0.57;;;;;;;;;;4985458;28;20117;-82
2023/12/24 08:15:43;;;;;;;0.68;0.68;;;;;;;;;;4986570;28;20073;-82
2023/12/24 08:30:57;;;;;;;0.40;0.40;;;;;;;;;;4947400;28;20118;-83
2023/12/24 08:33:23;;;;;;;1.08;0.70;;;;;;;;;;4950751;28;20052;-81
2023/12/24 08:35:48;;;;;;;0.90;0.45;;;;;;;;;;4971839;28;20035;-81
2023/12/24 08:38:14;;;;;;;0.47;0.47;;;;;;;;;;4946884;29;20039;-81
2023/12/24 08:40:39;;;;;;;0.50;0.50;;;;;;;;;;4952224;29;20058;-81
2023/12/24 08:43:05;;;;;;;0.38;0.38;;;;;;;;;;4957153;28;20054;-81
2023/12/24 08:45:30;;;;;;;0.50;0.50;;;;;;;;;;4969568;28;20036;-80
2023/12/24 08:47:55;;;;;;;1.25;0.43;;;;;;;;;;4937156;29;20035;-81
2023/12/24 08:50:21;;;;;;;0.30;0.30;;;;;;;;;;4953830;28;20063;-80
2023/12/24 08:52:47;;;;;;;0.45;0.45;;;;;;;;;;4941398;28;20045;-81
2023/12/24 08:55:12;;;;;;;0.43;0.43;;;;;;;;;;4950842;28;20382;-83
2023/12/24 08:57:38;;;;;;;0.43;0.43;;;;;;;;;;4938265;29;20692;-83
2023/12/24 09:00:05;;;;;;;0.47;0.47;;;;;;;;;;4928985;29;20495;-81
2023/12/24 09:02:30;;;;;;;0.82;0.60;;;;;;;;;;4952978;28;20074;-81
2023/12/24 09:04:57;;;;;;;0.47;0.47;;;;;;;;;;4971536;28;20039;-81
2023/12/24 09:07:23;;;;;;;0.65;0.40;;;;;;;;;;4959015;28;20024;-82
2023/12/24 09:09:48;;;;;;;0.50;0.50;;;;;;;;;;4951187;29;20063;-82
2023/12/24 09:12:15;;;;;;;0.45;0.45;;;;;;;;;;4933806;29;20031;-81
2023/12/24 09:14:40;;;;;;;0.32;0.32;;;;;;;;;;4962221;28;20060;-81
2023/12/24 09:17:05;;;;;;;3.83;0.50;;;;;;;;;;4935488;28;20313;-81
2023/12/24 09:19:31;;;;;;;0.32;0.32;;;;;;;;;;4942650;29;20055;-80
2023/12/24 09:21:56;;;;;;;0.50;0.50;;;;;;;;;;4950897;29;20062;-81
2023/12/24 09:24:21;;;;;;;0.40;0.40;;;;;;;;;;4941514;29;20031;-78
2023/12/24 09:26:47;;;;;;;0.40;0.40;;;;;;;;;;4873230;29;20075;-78
2023/12/24 09:29:12;;;;;;;0.35;0.35;;;;;;;;;;4935279;29;20035;-78
2023/12/24 09:31:39;;;;;;;0.65;0.40;;;;;;;;;;4934782;29;20062;-79
2023/12/24 09:34:06;;;;;;;0.70;0.55;;;;;;;;;;4919232;29;20040;-78
2023/12/24 09:36:31;;;;;;;1.25;0.52;;;;;;;;;;4936813;29;20047;-78
2023/12/24 09:38:56;;;;;;;0.43;0.43;;;;;;;;;;4935672;29;20039;-78
2023/12/24 09:41:21;;;;;;;1.65;1.25;;;;;;;;;;4836214;29;81759;-78
2023/12/24 09:43:47;;;;;;;0.80;0.80;;;;;;;;;;4933913;29;20047;-79
2023/12/24 09:46:12;;;;;;;0.47;0.47;;;;;;;;;;4899044;28;75762;-78
2023/12/24 09:48:37;;;;;;;0.80;0.50;;;;;;;;;;4934816;29;20086;-78
2023/12/24 09:51:03;;;;;;;0.30;0.30;;;;;;;;;;4909649;29;20056;-79
2023/12/24 09:53:30;;;;;;;0.40;0.40;;;;;;;;;;4947703;29;20572;-77
2023/12/24 09:55:59;;;;;;;0.30;0.30;;;;;;;;;;4933862;29;20103;-79
2023/12/24 09:58:24;;;;;;;3.30;0.60;;;;;;;;;;4919460;29;20062;-79
2023/12/24 10:00:49;;;;;;;0.50;0.50;;;;;;;;;;4936489;29;20035;-77
2023/12/24 10:03:15;;;;;;;0.50;0.50;;;;;;;;;;4919607;29;20130;-79
2023/12/24 10:06:08;;;;;;;0.50;0.50;;;;;;;;;;4936279;29;20400;-80
2023/12/24 10:08:35;;;;;;;0.45;0.45;;;;;;;;;;4962301;23;20098;-80
2023/12/24 10:11:23;;;;;;;1.50;0.57;;;;;;;;;;4965642;28;20045;-81
2023/12/24 10:14:03;;;;;;;0.43;0.43;;;;;;;;;;4925304;28;20039;-80
2023/12/24 10:16:28;;;;;;;0.50;0.50;;;;;;;;;;4992015;28;20039;-80
2023/12/24 10:18:58;;;;;;;0.40;0.40;;;;;;;;;;4991350;28;20415;-80
2023/12/24 10:21:24;;;;;;;0.40;0.40;;;;;;;;;;4971745;28;20532;-80
2023/12/24 10:23:51;;;;;;;0.73;0.50;;;;;;;;;;4973670;28;20051;-80
2023/12/24 10:26:20;;;;;;;1.00;0.63;;;;;;;;;;4975093;28;20042;-80
2023/12/24 10:28:50;;;;;;;0.50;0.50;;;;;;;;;;4970177;28;20477;-80
2023/12/24 10:31:15;;;;;;;0.70;0.70;;;;;;;;;;4976806;28;20058;-80
2023/12/24 10:33:41;;;;;;;0.50;0.50;;;;;;;;;;4974933;28;20556;-80
2023/12/24 10:36:07;;;;;;;0.50;0.50;;;;;;;;;;4976437;28;20039;-79
2023/12/24 10:38:34;;;;;;;0.50;0.50;;;;;;;;;;4977334;28;20031;-80
2023/12/24 10:41:00;;;;;;;0.57;0.57;;;;;;;;;;4975581;28;20023;-78
2023/12/24 10:43:25;;;;;;;0.60;0.60;;;;;;;;;;4976580;28;20042;-79
2023/12/24 10:45:50;;;;;;;0.47;0.47;;;;;;;;;;4976412;28;20506;-80
2023/12/24 10:48:16;;;;;;;0.75;0.50;;;;;;;;;;4976794;28;20042;-80
2023/12/24 10:50:41;;;;;;;0.70;0.70;;;;;;;;;;4977654;28;20047;-79
2023/12/24 10:53:07;;;;;;;0.60;0.60;;;;;;;;;;4969245;28;20035;-79
2023/12/24 10:55:35;;;;;;;0.70;0.70;;;;;;;;;;4970521;28;20046;-80
2023/12/24 10:58:14;;;;;;;0.40;0.40;;;;;;;;;;4970862;28;20043;-81
2023/12/24 11:00:40;;;;;;;0.40;0.40;;;;;;;;;;4959192;28;20801;-80
2023/12/24 11:03:05;;;;;;;3.35;0.40;;;;;;;;;;4973917;28;20409;-80
2023/12/24 11:05:39;;;;;;;0.52;0.52;;;;;;;;;;4977273;28;20043;-80
2023/12/24 11:08:05;;;;;;;0.60;0.60;;;;;;;;;;4975813;28;20046;-80
2023/12/24 11:10:41;;;;;;;0.50;0.50;;;;;;;;;;4977313;28;20051;-80
2023/12/24 11:13:11;;;;;;;0.50;0.50;;;;;;;;;;4974189;28;20062;-81
2023/12/24 11:15:44;;;;;;;0.43;0.43;;;;;;;;;;4976368;28;20049;-80
2023/12/24 11:18:10;;;;;;;0.40;0.40;;;;;;;;;;4960681;28;20043;-80
2023/12/24 11:20:40;;;;;;;0.50;0.50;;;;;;;;;;4980879;28;20019;-80
2023/12/24 11:23:06;;;;;;;0.50;0.50;;;;;;;;;;4976545;28;20045;-80
2023/12/24 11:25:41;;;;;;;0.40;0.40;;;;;;;;;;4996559;28;20035;-79
2023/12/24 11:28:12;;;;;;;0.45;0.45;;;;;;;;;;4979479;28;20046;-79
2023/12/24 11:30:50;;;;;;;0.65;0.65;;;;;;;;;;4984683;28;20086;-81
2023/12/24 11:33:36;;;;;;;0.38;0.38;;;;;;;;;;4977524;28;20054;-81
2023/12/24 11:36:08;;;;;;;0.45;0.45;;;;;;;;;;4975782;28;20031;-81
2023/12/24 11:38:33;;;;;;;0.50;0.50;;;;;;;;;;4976192;28;20042;-80
2023/12/24 11:41:12;;;;;;;0.40;0.40;;;;;;;;;;4962667;28;20491;-81
2023/12/24 11:43:42;;;;;;;0.40;0.40;;;;;;;;;;4977059;28;20194;-81
2023/12/24 11:46:08;;;;;;;2.08;0.90;;;;;;;;;;4979976;28;20038;-81
2023/12/24 11:48:35;;;;;;;0.40;0.40;;;;;;;;;;4983845;28;20033;-80
2023/12/24 11:51:06;;;;;;;0.50;0.50;;;;;;;;;;4981360;28;20034;-80
2023/12/24 11:53:35;;;;;;;0.40;0.40;;;;;;;;;;4996987;28;20527;-80
2023/12/24 11:56:08;;;;;;;3.08;0.40;;;;;;;;;;4999832;28;20069;-80
2023/12/24 11:58:33;;;;;;;3.80;0.60;;;;;;;;;;5009188;28;20069;-81
2023/12/24 12:01:02;;;;;;;0.40;0.40;;;;;;;;;;5007202;28;20035;-81
2023/12/24 12:03:31;;;;;;;0.45;0.45;;;;;;;;;;4995924;28;20038;-81
2023/12/24 12:05:57;;;;;;;0.40;0.40;;;;;;;;;;4976415;28;20039;-80
2023/12/24 12:08:22;;;;;;;0.45;0.45;;;;;;;;;;4979519;28;20118;-80
2023/12/24 12:10:47;;;;;;;0.30;0.30;;;;;;;;;;5001123;28;20066;-81
2023/12/24 12:13:13;;;;;;;0.40;0.40;;;;;;;;;;4996696;28;20043;-81
2023/12/24 12:15:38;;;;;;;0.52;0.52;;;;;;;;;;5004129;28;20457;-82
2023/12/24 12:18:04;;;;;;;0.30;0.30;;;;;;;;;;4996091;28;20502;-80
2023/12/24 12:20:30;;;;;;;0.50;0.50;;;;;;;;;;4996909;28;20057;-81
2023/12/24 12:22:56;;;;;;;0.47;0.47;;;;;;;;;;4998555;28;20030;-81
2023/12/24 12:25:21;;;;;;;0.50;0.50;;;;;;;;;;4994468;28;20039;-82
2023/12/24 12:27:46;;;;;;;0.52;0.52;;;;;;;;;;4997314;28;20054;-79
2023/12/24 12:30:12;;;;;;;0.50;0.50;;;;;;;;;;5006918;28;20029;-79
2023/12/24 12:32:37;;;;;;;1.25;0.65;;;;;;;;;;5001314;28;20030;-80
2023/12/24 12:35:03;;;;;;;0.45;0.45;;;;;;;;;;4999206;28;20360;-80
2023/12/24 12:37:28;;;;;;;0.30;0.30;;;;;;;;;;4965277;28;20042;-80
2023/12/24 12:39:53;;;;;;;0.65;0.50;;;;;;;;;;4993654;28;20139;-79
2023/12/24 12:42:19;;;;;;;0.70;0.55;;;;;;;;;;5005367;28;20039;-81
2023/12/24 12:44:45;;;;;;;0.50;0.50;;;;;;;;;;5000885;28;20121;-80
2023/12/24 12:47:12;;;;;;;0.50;0.50;;;;;;;;;;4982421;28;20030;-81
2023/12/24 12:49:39;;;;;;;0.40;0.40;;;;;;;;;;4992875;28;20507;-82
2023/12/24 12:52:04;;;;;;;0.73;0.50;;;;;;;;;;5002780;28;20070;-82
2023/12/24 12:54:29;;;;;;;0.40;0.40;;;;;;;;;;4987810;28;20097;-81
2023/12/24 12:56:57;;;;;;;0.40;0.40;;;;;;;;;;4999994;28;20038;-80
2023/12/24 12:59:25;;;;;;;1.40;0.40;;;;;;;;;;4995699;28;20081;-80
2023/12/24 13:01:51;;;;;;;0.52;0.50;;;;;;;;;;4994995;28;20042;-80
2023/12/24 13:04:32;;;;;;;0.40;0.40;;;;;;;;;;4984612;28;20073;-80
2023/12/24 13:06:59;;;;;;;0.50;0.50;;;;;;;;;;4997968;28;20034;-80
2023/12/24 13:09:24;;;;;;;0.50;0.50;;;;;;;;;;4991592;28;20042;-80
2023/12/24 13:11:50;;;;;;;0.45;0.45;;;;;;;;;;5000371;28;20038;-79
2023/12/24 13:14:17;;;;;;;2.03;0.40;;;;;;;;;;4981577;28;20409;-79
2023/12/24 13:16:43;;;;;;;0.95;0.50;;;;;;;;;;5005403;28;20086;-79
2023/12/24 13:19:20;;;;;;;0.30;0.30;;;;;;;;;;4980356;28;20425;-79
2023/12/24 13:21:46;;;;;;;0.50;0.50;;;;;;;;;;4986687;28;20554;-79
2023/12/24 13:24:11;;;;;;;0.30;0.30;;;;;;;;;;4993322;28;20158;-79
2023/12/24 13:26:37;;;;;;;0.35;0.35;;;;;;;;;;4995560;28;20148;-80
2023/12/24 13:29:04;;;;;;;0.50;0.50;;;;;;;;;;4998708;28;20021;-80
2023/12/24 13:31:29;;;;;;;0.40;0.40;;;;;;;;;;4996188;28;20083;-80
2023/12/24 13:33:55;;;;;;;0.30;0.30;;;;;;;;;;4973565;28;20513;-80
2023/12/24 13:36:20;;;;;;;0.85;0.43;;;;;;;;;;4990012;28;20118;-80
2023/12/24 13:38:46;;;;;;;0.85;0.40;;;;;;;;;;4997068;28;20513;-80
2023/12/24 13:41:12;;;;;;;0.40;0.40;;;;;;;;;;4998523;28;20038;-80
2023/12/24 13:43:39;;;;;;;0.40;0.40;;;;;;;;;;4981844;28;20046;-80
2023/12/24 13:46:05;;;;;;;0.38;0.38;;;;;;;;;;4981222;28;20434;-80
2023/12/24 13:48:30;;;;;;;0.40;0.40;;;;;;;;;;4977323;28;20039;-80
2023/12/24 13:50:56;;;;;;;0.30;0.30;;;;;;;;;;4977640;28;20168;-80
2023/12/24 13:53:21;;;;;;;0.40;0.40;;;;;;;;;;5008686;28;20050;-80
2023/12/24 13:55:46;;;;;;;0.73;0.40;;;;;;;;;;4991450;28;20030;-80
2023/12/24 13:58:12;;;;;;;0.40;0.40;;;;;;;;;;4997627;28;20042;-80
2023/12/24 14:00:38;;;;;;;0.32;0.32;;;;;;;;;;4997636;28;20046;-80
2023/12/24 14:03:04;;;;;;;0.50;0.43;;;;;;;;;;4996699;28;20047;-81
2023/12/24 14:05:30;;;;;;;0.35;0.30;;;;;;;;;;4993731;28;20038;-80
2023/12/24 14:07:55;;;;;;;0.40;0.40;;;;;;;;;;4996314;28;20301;-79
2023/12/24 14:10:21;;;;;;;0.50;0.50;;;;;;;;;;4995179;28;20046;-81
2023/12/24 14:12:46;;;;;;;0.40;0.40;;;;;;;;;;4971402;28;20113;-79
2023/12/24 14:15:12;;;;;;;0.52;0.50;;;;;;;;;;4992082;28;20125;-80
2023/12/24 14:17:37;;;;;;;1.33;0.50;;;;;;;;;;4996542;28;20035;-79
2023/12/24 14:20:07;;;;;;;0.98;0.40;;;;;;;;;;4996922;28;20427;-82
2023/12/24 14:22:33;;;;;;;0.40;0.40;;;;;;;;;;4980340;28;20580;-80
2023/12/24 14:24:59;;;;;;;0.80;0.80;;;;;;;;;;4997488;28;20046;-80
2023/12/24 14:27:25;;;;;;;0.25;0.25;;;;;;;;;;4997277;28;20451;-82
2023/12/24 14:29:54;;;;;;;0.50;0.50;;;;;;;;;;4959915;28;20035;-82
2023/12/24 14:32:19;;;;;;;0.50;0.50;;;;;;;;;;4995531;28;20030;-80
2023/12/24 14:34:44;;;;;;;0.40;0.40;;;;;;;;;;4996739;28;20073;-81
2023/12/24 14:37:10;;;;;;;0.50;0.50;;;;;;;;;;4990718;28;20042;-82
2023/12/24 14:39:36;;;;;;;0.50;0.50;;;;;;;;;;4979790;28;20051;-81
2023/12/24 14:42:02;;;;;;;0.38;0.38;;;;;;;;;;5011534;28;20031;-80
2023/12/24 14:44:28;;;;;;;0.40;0.40;;;;;;;;;;4990793;28;20050;-80
2023/12/24 14:46:53;;;;;;;0.50;0.50;;;;;;;;;;4996026;28;20043;-81
2023/12/24 14:49:18;;;;;;;0.60;0.60;;;;;;;;;;4983981;28;20034;-80
2023/12/24 14:51:44;;;;;;;0.40;0.40;;;;;;;;;;4980122;28;20042;-81
2023/12/24 14:54:09;;;;;;;2.38;0.50;;;;;;;;;;4990839;28;20018;-79
2023/12/24 14:56:34;;;;;;;0.63;0.40;;;;;;;;;;4991831;28;20074;-80
2023/12/24 14:59:00;;;;;;;0.90;0.63;;;;;;;;;;4997066;28;20065;-79